createdAt,value
2019-05-13T00:00:40.257Z,99466.61
2019-05-13T00:03:13.614Z,99471.39
2019-05-13T00:05:45.802Z,99474.96
2019-05-13T00:08:21.760Z,99479.38
2019-05-13T00:10:54.439Z,99471.92
2019-05-13T00:13:28.235Z,99474.53
2019-05-13T00:16:00.211Z,99472.75
2019-05-13T00:18:33.936Z,99470.67
2019-05-13T00:21:07.623Z,99471.12
2019-05-13T00:23:41.063Z,99464.53
2019-05-13T00:26:14.097Z,99471.56
2019-05-13T00:28:47.768Z,99468.95
2019-05-13T00:31:21.356Z,99470.64
2019-05-13T00:33:53.341Z,99468.89
2019-05-13T00:36:25.725Z,99477.70
2019-05-13T00:38:57.670Z,99480.34
2019-05-13T00:41:29.673Z,99468.95
2019-05-13T00:44:06.018Z,99480.00
2019-05-13T00:46:38.065Z,99477.92
2019-05-13T00:49:09.989Z,99473.16
2019-05-13T00:51:44.228Z,99478.07
2019-05-13T00:54:15.735Z,99475.95
2019-05-13T00:56:47.856Z,99475.59
2019-05-13T00:59:21.636Z,99482.19
2019-05-13T01:01:54.737Z,99480.80
2019-05-13T01:04:28.493Z,99487.86
2019-05-13T01:07:00.835Z,99486.11
2019-05-13T01:09:34.223Z,99485.68
2019-05-13T01:12:06.556Z,99493.13
2019-05-13T01:14:38.507Z,99490.95
2019-05-13T01:17:10.469Z,99494.06
2019-05-13T01:19:43.553Z,99486.14
2019-05-13T01:22:15.629Z,99493.14
2019-05-13T01:24:47.577Z,99487.86
2019-05-13T01:27:20.003Z,99493.62
2019-05-13T01:29:54.313Z,99496.75
2019-05-13T01:32:26.243Z,99497.66
2019-05-13T01:34:58.207Z,99495.91
2019-05-13T01:37:39.921Z,99508.24
2019-05-13T01:40:05.080Z,99503.02
2019-05-13T01:42:37.299Z,99503.85
2019-05-13T01:45:09.288Z,99505.69
2019-05-13T01:47:43.768Z,99498.28
2019-05-13T01:50:15.370Z,99504.47
2019-05-13T01:52:48.338Z,99503.18
2019-05-13T01:55:20.442Z,99506.68
2019-05-13T01:57:53.303Z,99507.65
2019-05-13T02:00:25.474Z,99506.03
2019-05-13T02:02:57.444Z,99506.03
2019-05-13T02:05:29.465Z,99509.55
2019-05-13T02:08:03.992Z,99507.80
2019-05-13T02:10:54.847Z,99514.82
2019-05-13T02:13:28.510Z,99506.91
2019-05-13T02:16:00.698Z,99509.55
2019-05-13T02:18:34.196Z,99510.00
2019-05-13T02:21:06.650Z,99516.19
2019-05-13T02:23:38.715Z,99518.84
2019-05-13T02:26:13.439Z,99514.91
2019-05-13T02:28:44.708Z,99515.85
2019-05-13T02:31:25.103Z,99517.59
2019-05-13T02:33:53.026Z,99528.19
2019-05-13T02:36:24.009Z,99528.21
2019-05-13T02:38:55.977Z,99518.58
2019-05-13T02:41:28.006Z,99526.05
2019-05-13T02:44:03.342Z,99530.00
2019-05-13T02:46:34.255Z,99537.91
2019-05-13T02:49:06.241Z,99537.45
2019-05-13T02:51:38.283Z,99538.34
2019-05-13T02:54:12.363Z,99540.12
2019-05-13T02:56:44.286Z,99535.75
2019-05-13T02:59:16.410Z,99545.41
2019-05-13T03:01:48.456Z,99542.73
2019-05-13T03:04:23.317Z,99546.73
2019-05-13T03:06:54.448Z,99551.08
2019-05-13T03:09:26.459Z,99559.88
2019-05-13T03:11:58.425Z,99552.38
2019-05-13T03:14:32.291Z,99553.66
2019-05-13T03:17:15.780Z,99554.95
2019-05-13T03:19:47.747Z,99553.59
2019-05-13T03:22:22.425Z,99561.98
2019-05-13T03:24:54.077Z,99566.31
2019-05-13T03:27:26.010Z,99565.47
2019-05-13T03:29:57.968Z,99560.64
2019-05-13T03:32:37.718Z,99572.95
2019-05-13T03:35:07.192Z,99572.50
2019-05-13T03:37:37.890Z,99561.03
2019-05-13T03:40:13.131Z,99564.91
2019-05-13T03:42:46.712Z,99577.19
2019-05-13T03:45:21.793Z,99576.70
2019-05-13T03:47:53.633Z,99579.73
2019-05-13T03:50:30.187Z,99582.83
2019-05-13T03:53:02.687Z,99588.95
2019-05-13T03:55:33.245Z,99586.23
2019-05-13T03:58:05.398Z,99583.11
2019-05-13T04:00:37.383Z,99589.27
2019-05-13T04:03:09.415Z,99584.87
2019-05-13T04:05:43.700Z,99593.23
2019-05-13T04:08:16.110Z,99595.87
2019-05-13T04:10:48.096Z,99599.85
2019-05-13T04:13:23.367Z,99602.92
2019-05-13T04:15:54.321Z,99604.67
2019-05-13T04:18:26.260Z,99616.92
2019-05-13T04:20:58.483Z,99623.66
2019-05-13T04:23:32.434Z,99628.97
2019-05-13T04:26:04.730Z,99629.89
2019-05-13T04:28:36.709Z,99632.03
2019-05-13T04:31:08.678Z,99634.11
2019-05-13T04:33:42.649Z,99634.16
2019-05-13T04:36:14.396Z,99638.12
2019-05-13T04:38:46.361Z,99626.70
2019-05-13T04:41:18.428Z,99631.94
2019-05-13T04:43:54.167Z,99634.09
2019-05-13T04:46:24.696Z,99635.84
2019-05-13T04:48:56.656Z,99635.37
2019-05-13T04:51:28.602Z,99637.94
2019-05-13T04:54:02.826Z,99640.51
2019-05-13T04:56:34.652Z,99638.71
2019-05-13T04:59:06.869Z,99638.19
2019-05-13T05:02:37.413Z,99633.23
2019-05-13T05:05:12.763Z,99625.67
2019-05-13T05:08:22.438Z,99630.39
2019-05-13T05:11:52.929Z,99619.75
2019-05-13T05:15:19.110Z,99625.38
2019-05-13T05:18:53.667Z,99624.27
2019-05-13T05:21:32.465Z,99631.22
2019-05-13T05:24:46.324Z,99635.09
2019-05-13T05:28:11.201Z,99639.86
2019-05-13T05:31:32.367Z,99636.23
2019-05-13T05:34:49.022Z,99644.03
2019-05-13T05:38:27.897Z,99647.37
2019-05-13T05:41:02.667Z,99633.88
2019-05-13T05:43:37.724Z,99636.13
2019-05-13T05:46:11.657Z,99638.09
2019-05-13T05:48:45.074Z,99634.20
2019-05-13T05:51:17.241Z,99637.25
2019-05-13T05:53:51.665Z,99641.18
2019-05-13T05:56:25.742Z,99640.27
2019-05-13T05:59:02.786Z,99639.17
2019-05-13T06:01:37.336Z,99640.77
2019-05-13T06:04:08.160Z,99645.98
2019-05-13T06:06:41.575Z,99643.13
2019-05-13T06:09:13.597Z,99646.62
2019-05-13T06:11:45.935Z,99657.30
2019-05-13T06:14:21.749Z,99657.76
2019-05-13T06:16:53.111Z,99661.11
2019-05-13T06:19:25.152Z,99658.34
2019-05-13T06:21:57.204Z,99658.98
2019-05-13T06:24:31.257Z,99653.88
2019-05-13T06:27:03.101Z,99660.00
2019-05-13T06:29:35.369Z,99657.69
2019-05-13T06:32:21.241Z,99666.77
2019-05-13T06:34:41.584Z,99656.98
2019-05-13T06:37:13.800Z,99660.91
2019-05-13T06:39:45.745Z,99661.91
2019-05-13T06:42:17.726Z,99674.86
2019-05-13T06:44:51.389Z,99674.00
2019-05-13T06:47:23.779Z,99668.14
2019-05-13T06:49:55.743Z,99674.07
2019-05-13T06:52:27.718Z,99669.56
2019-05-13T06:55:02.728Z,99672.45
2019-05-13T06:57:34.083Z,99672.73
2019-05-13T07:00:06.848Z,99676.62
2019-05-13T07:02:38.913Z,99668.63
2019-05-13T07:05:12.013Z,99682.39
2019-05-13T07:07:44.156Z,99684.95
2019-05-13T07:10:16.247Z,99688.03
2019-05-13T07:12:48.345Z,99695.37
2019-05-13T07:15:22.411Z,99696.11
2019-05-13T07:17:54.950Z,99705.07
2019-05-13T07:20:26.948Z,99706.16
2019-05-13T07:23:01.444Z,99702.73
2019-05-13T07:25:32.874Z,99699.78
2019-05-13T07:28:04.973Z,99705.16
2019-05-13T07:30:43.029Z,99706.20
2019-05-13T07:33:15.649Z,99705.30
2019-05-13T07:35:47.731Z,99700.14
2019-05-13T07:38:22.289Z,99704.81
2019-05-13T07:41:01.736Z,99706.80
2019-05-13T07:43:34.826Z,99703.61
2019-05-13T07:46:06.813Z,99708.78
2019-05-13T07:48:41.428Z,99698.70
2019-05-13T07:51:12.462Z,99697.22
2019-05-13T07:53:44.722Z,99701.72
2019-05-13T07:56:16.761Z,99702.63
2019-05-13T07:58:48.745Z,99707.30
2019-05-13T08:01:22.085Z,99707.58
2019-05-13T08:03:54.509Z,99709.20
2019-05-13T08:06:26.518Z,99707.22
2019-05-13T08:08:58.561Z,99712.20
2019-05-13T08:11:35.354Z,99705.92
2019-05-13T08:14:07.150Z,99709.33
2019-05-13T08:16:39.209Z,99715.10
2019-05-13T08:19:12.304Z,99715.61
2019-05-13T08:21:44.642Z,99707.25
2019-05-13T08:24:16.719Z,99717.94
2019-05-13T08:26:52.422Z,99716.64
2019-05-13T08:29:22.684Z,99722.80
2019-05-13T08:31:54.696Z,99716.59
2019-05-13T08:34:26.788Z,99720.45
2019-05-13T08:36:58.743Z,99717.94
2019-05-13T08:39:35.731Z,99715.00
2019-05-13T08:42:15.244Z,99711.94
2019-05-13T08:44:41.465Z,99709.17
2019-05-13T08:47:12.419Z,99709.55
2019-05-13T08:49:44.546Z,99714.73
2019-05-13T08:52:16.575Z,99717.98
2019-05-13T08:54:48.570Z,99723.52
2019-05-13T08:57:22.139Z,99718.59
2019-05-13T08:59:54.348Z,99723.94
2019-05-13T09:02:26.384Z,99731.98
2019-05-13T09:04:58.434Z,99721.98
2019-05-13T09:07:32.093Z,99725.86
2019-05-13T09:10:04.593Z,99725.45
2019-05-13T09:12:40.145Z,99731.39
2019-05-13T09:15:12.134Z,99720.45
2019-05-13T09:17:44.091Z,99733.80
2019-05-13T09:20:16.144Z,99722.32
2019-05-13T09:22:48.087Z,99728.44
2019-05-13T09:25:21.689Z,99724.59
2019-05-13T09:27:53.807Z,99724.05
2019-05-13T09:30:27.395Z,99719.28
2019-05-13T09:33:01.841Z,99715.23
2019-05-13T09:35:33.601Z,99718.25
2019-05-13T09:38:05.649Z,99708.97
2019-05-13T09:40:37.583Z,99716.05
2019-05-13T09:43:11.593Z,99712.63
2019-05-13T09:45:44.908Z,99716.73
2019-05-13T09:48:16.884Z,99715.50
2019-05-13T09:50:48.850Z,99703.64
2019-05-13T09:53:22.276Z,99707.48
2019-05-13T09:55:54.666Z,99702.86
2019-05-13T09:58:29.677Z,99711.92
2019-05-13T10:01:00.688Z,99714.12
2019-05-13T10:06:06.362Z,99713.56
2019-05-13T10:08:38.312Z,99708.06
2019-05-13T10:11:12.337Z,99715.33
2019-05-13T10:13:44.028Z,99709.34
2019-05-13T10:16:16.067Z,99716.03
2019-05-13T10:18:48.030Z,99711.52
2019-05-13T10:21:21.820Z,99713.73
2019-05-13T10:23:58.469Z,99711.44
2019-05-13T10:26:27.918Z,99710.28
2019-05-13T10:29:00.322Z,99707.12
2019-05-13T10:31:32.270Z,99692.72
2019-05-13T10:34:04.250Z,99699.67
2019-05-13T10:36:36.311Z,99700.55
2019-05-13T10:39:11.818Z,99690.05
2019-05-13T10:41:43.788Z,99691.30
2019-05-13T10:44:15.796Z,99694.31
2019-05-13T10:46:47.796Z,99684.95
2019-05-13T10:49:22.143Z,99687.34
2019-05-13T10:51:53.504Z,99686.50
2019-05-13T10:54:25.487Z,99680.73
2019-05-13T10:56:59.722Z,99689.37
2019-05-13T10:59:31.302Z,99696.29
2019-05-13T11:02:03.261Z,99685.92
2019-05-13T11:04:35.296Z,99689.46
2019-05-13T11:07:07.269Z,99685.88
2019-05-13T11:09:41.870Z,99685.84
2019-05-13T11:12:13.104Z,99683.34
2019-05-13T11:14:46.768Z,99682.11
2019-05-13T11:17:25.679Z,99686.28
2019-05-13T11:19:52.584Z,99683.77
2019-05-13T11:22:24.563Z,99681.53
2019-05-13T11:24:56.523Z,99684.62
2019-05-13T11:27:28.544Z,99680.78
2019-05-13T11:30:05.544Z,99669.62
2019-05-13T11:32:37.618Z,99673.44
2019-05-13T11:35:12.880Z,99681.86
2019-05-13T11:37:43.982Z,99676.22
2019-05-13T11:40:16.607Z,99677.36
2019-05-13T11:42:48.571Z,99678.65
2019-05-13T11:45:22.379Z,99672.13
2019-05-13T11:47:54.660Z,99677.58
2019-05-13T11:50:26.657Z,99675.64
2019-05-13T11:53:06.045Z,99675.09
2019-05-13T11:55:35.247Z,99673.63
2019-05-13T11:58:07.264Z,99670.15
2019-05-13T12:00:56.842Z,99670.28
2019-05-13T12:03:32.173Z,99670.17
2019-05-13T12:06:02.815Z,99671.84
2019-05-13T12:08:36.648Z,99666.91
2019-05-13T12:11:08.627Z,99670.82
2019-05-13T12:13:42.619Z,99668.08
2019-05-13T12:16:14.808Z,99670.84
2019-05-13T12:18:46.806Z,99668.77
2019-05-13T12:21:19.153Z,99673.36
2019-05-13T12:23:52.765Z,99669.27
2019-05-13T12:26:25.306Z,99670.27
2019-05-13T12:28:57.335Z,99670.88
2019-05-13T12:31:33.615Z,99668.28
2019-05-13T12:34:03.918Z,99672.70
2019-05-13T12:36:36.175Z,99671.36
2019-05-13T12:39:13.969Z,99674.95
2019-05-13T12:41:43.146Z,99669.00
2019-05-13T12:44:15.253Z,99668.03
2019-05-13T12:46:54.280Z,99663.93
2019-05-13T12:49:22.046Z,99667.02
2019-05-13T12:52:00.325Z,99665.77
2019-05-13T12:54:27.818Z,99656.14
2019-05-13T12:56:59.944Z,99655.22
2019-05-13T12:59:33.480Z,99657.67
2019-05-13T13:02:05.479Z,99658.59
2019-05-13T13:04:37.584Z,99644.17
2019-05-13T13:07:13.406Z,99655.03
2019-05-13T13:09:43.795Z,99650.92
2019-05-13T13:12:15.871Z,99652.75
2019-05-13T13:14:47.955Z,99642.52
2019-05-13T13:17:24.036Z,99645.59
2019-05-13T13:19:59.847Z,99650.56
2019-05-13T13:22:27.786Z,99650.27
2019-05-13T13:25:04.904Z,99646.25
2019-05-13T13:27:59.930Z,99646.94
2019-05-13T13:30:09.225Z,99650.93
2019-05-13T13:32:45.128Z,99653.38
2019-05-13T13:35:15.521Z,99653.93
2019-05-13T13:37:47.663Z,99651.11
2019-05-13T13:40:28.346Z,99661.45
2019-05-13T13:42:54.445Z,99656.66
2019-05-13T13:45:26.693Z,99664.90
2019-05-13T13:48:03.641Z,99663.22
2019-05-13T13:50:33.561Z,99664.70
2019-05-13T13:53:05.892Z,99656.30
2019-05-13T13:55:37.880Z,99657.20
2019-05-13T13:58:13.890Z,99666.89
2019-05-13T14:00:56.046Z,99667.22
2019-05-13T14:03:17.492Z,99667.07
2019-05-13T14:05:53.720Z,99663.33
2019-05-13T14:06:25.464Z,99712.27
2019-05-13T14:08:23.800Z,99678.25
2019-05-13T14:10:55.773Z,99673.47
2019-05-13T14:13:27.869Z,99686.30
2019-05-13T14:16:01.887Z,99683.56
2019-05-13T14:18:33.739Z,99688.11
2019-05-13T14:21:05.838Z,99695.48
2019-05-13T14:23:38.159Z,99695.03
2019-05-13T14:26:10.958Z,99685.50
2019-05-13T14:28:42.950Z,99696.13
2019-05-13T14:31:15.166Z,99698.23
2019-05-13T14:33:47.221Z,99688.93
2019-05-13T14:36:19.591Z,99698.00
2019-05-13T14:38:52.642Z,99692.19
2019-05-13T14:41:24.987Z,99694.83
2019-05-13T14:43:57.063Z,99704.55
2019-05-13T14:46:45.717Z,99703.34
2019-05-13T14:49:02.820Z,99704.47
2019-05-13T14:51:34.825Z,99698.25
2019-05-13T14:54:06.841Z,99703.44
2019-05-13T14:56:38.928Z,99704.27
2019-05-13T14:59:11.845Z,99709.77
2019-05-13T15:01:43.928Z,99714.73
2019-05-13T15:04:15.999Z,99708.51
2019-05-13T15:06:48.141Z,99710.07
2019-05-13T15:09:22.323Z,99713.70
2019-05-13T15:11:55.809Z,99716.12
2019-05-13T15:14:27.791Z,99718.81
2019-05-13T15:17:31.533Z,99711.87
2019-05-13T15:19:34.099Z,99716.09
2019-05-13T15:22:06.392Z,99712.22
2019-05-13T15:24:41.118Z,99712.44
2019-05-13T15:27:12.285Z,99715.02
2019-05-13T15:29:44.317Z,99715.59
2019-05-13T15:32:16.360Z,99717.46
2019-05-13T15:34:51.873Z,99719.91
2019-05-13T15:37:24.105Z,99722.56
2019-05-13T15:39:56.144Z,99720.81
2019-05-13T15:42:28.163Z,99717.05
2019-05-13T15:45:01.802Z,99709.19
2019-05-13T15:47:34.355Z,99706.53
2019-05-13T15:50:06.834Z,99701.22
2019-05-13T15:52:39.138Z,99697.92
2019-05-13T15:55:12.002Z,99697.75
2019-05-13T15:57:44.432Z,99693.67
2019-05-13T16:00:16.407Z,99694.61
2019-05-13T16:02:52.220Z,99698.28
2019-05-13T16:05:24.556Z,99703.65
2019-05-13T16:07:56.697Z,99703.97
2019-05-13T16:10:28.756Z,99708.75
2019-05-13T16:13:02.323Z,99702.41
2019-05-13T16:15:34.660Z,99701.03
2019-05-13T16:18:06.643Z,99703.47
2019-05-13T16:20:42.596Z,99702.92
2019-05-13T16:23:12.686Z,99708.78
2019-05-13T16:25:44.839Z,99697.98
2019-05-13T16:28:17.004Z,99702.17
2019-05-13T16:30:51.416Z,99703.94
2019-05-13T16:33:22.873Z,99704.67
2019-05-13T16:35:54.893Z,99699.11
2019-05-13T16:38:26.893Z,99694.84
2019-05-13T16:40:58.847Z,99694.86
2019-05-13T16:43:31.939Z,99700.42
2019-05-13T16:46:07.148Z,99692.63
2019-05-13T16:48:37.895Z,99693.23
2019-05-13T16:51:12.388Z,99679.53
2019-05-13T16:53:43.999Z,99689.28
2019-05-13T16:56:26.829Z,99684.83
2019-05-13T16:58:52.007Z,99685.98
2019-05-13T17:01:23.694Z,99693.27
2019-05-13T17:03:55.737Z,99685.71
2019-05-13T17:06:27.829Z,99690.58
2019-05-13T17:09:02.024Z,99686.89
2019-05-13T17:11:34.234Z,99690.34
2019-05-13T17:14:06.526Z,99694.19
2019-05-13T17:16:38.517Z,99693.66
2019-05-13T17:19:12.185Z,99691.02
2019-05-13T17:21:44.438Z,99698.28
2019-05-13T17:24:16.620Z,99696.87
2019-05-13T17:26:48.675Z,99694.91
2019-05-13T17:29:21.305Z,99693.46
2019-05-13T17:31:53.347Z,99686.24
2019-05-13T17:34:25.471Z,99687.98
2019-05-13T17:36:57.529Z,99682.25
2019-05-13T17:39:32.028Z,99683.79
2019-05-13T17:42:03.738Z,99690.02
2019-05-13T17:44:35.777Z,99685.75
2019-05-13T17:47:08.122Z,99689.36
2019-05-13T17:49:41.854Z,99681.44
2019-05-13T17:52:14.332Z,99690.02
2019-05-13T17:54:46.342Z,99689.50
2019-05-13T17:57:18.288Z,99689.56
2019-05-13T17:59:52.165Z,99693.19
2019-05-13T18:02:24.000Z,99688.79
2019-05-13T18:04:56.129Z,99682.73
2019-05-13T18:07:28.203Z,99685.38
2019-05-13T18:10:01.573Z,99685.91
2019-05-13T18:12:33.842Z,99691.28
2019-05-13T18:15:06.415Z,99688.20
2019-05-13T18:17:38.462Z,99690.77
2019-05-13T18:20:10.924Z,99680.09
2019-05-13T18:22:43.159Z,99680.55
2019-05-13T18:25:15.506Z,99682.30
2019-05-13T18:27:47.537Z,99687.47
2019-05-13T18:30:21.369Z,99697.12
2019-05-13T18:32:53.413Z,99691.31
2019-05-13T18:35:25.475Z,99700.22
2019-05-13T18:37:57.527Z,99702.40
2019-05-13T18:40:31.577Z,99697.12
2019-05-13T18:43:03.263Z,99704.27
2019-05-13T18:45:36.597Z,99701.22
2019-05-13T18:48:08.573Z,99699.84
2019-05-13T18:50:41.963Z,99692.32
2019-05-13T18:53:14.723Z,99699.04
2019-05-13T18:55:46.853Z,99701.30
2019-05-13T18:58:18.985Z,99707.86
2019-05-13T19:00:52.229Z,99704.41
2019-05-13T19:03:24.603Z,99703.54
2019-05-13T19:05:56.798Z,99704.11
2019-05-13T19:08:28.805Z,99701.54
2019-05-13T19:11:01.337Z,99701.57
2019-05-13T19:13:33.591Z,99696.75
2019-05-13T19:16:05.947Z,99706.02
2019-05-13T19:18:38.518Z,99698.14
2019-05-13T19:21:10.904Z,99696.75
2019-05-13T19:23:43.111Z,99695.43
2019-05-13T19:26:15.133Z,99693.80
2019-05-13T19:28:47.317Z,99696.53
2019-05-13T19:31:19.284Z,99691.67
2019-05-13T19:33:52.107Z,99689.46
2019-05-13T19:36:24.393Z,99697.76
2019-05-13T19:38:56.373Z,99693.44
2019-05-13T19:41:28.365Z,99701.45
2019-05-13T19:44:01.609Z,99702.45
2019-05-13T19:46:33.853Z,99698.95
2019-05-13T19:49:06.305Z,99699.34
2019-05-13T19:51:38.275Z,99691.33
2019-05-13T19:54:11.733Z,99686.41
2019-05-13T19:56:44.010Z,99690.82
2019-05-13T19:59:16.039Z,99689.09
2019-05-13T20:01:48.100Z,99683.00
2019-05-13T20:04:21.864Z,99683.57
2019-05-13T20:06:53.995Z,99681.89
2019-05-13T20:09:26.013Z,99681.13
2019-05-13T20:11:58.009Z,99676.34
2019-05-13T20:14:30.408Z,99686.09
2019-05-13T20:17:02.463Z,99684.84
2019-05-13T20:19:46.476Z,99675.25
2019-05-13T20:22:08.157Z,99677.09
2019-05-13T20:24:41.943Z,99673.59
2019-05-13T20:27:14.286Z,99666.98
2019-05-13T20:29:51.189Z,99669.64
2019-05-13T20:32:23.042Z,99670.17
2019-05-13T20:34:55.113Z,99663.19
2019-05-13T20:37:27.111Z,99665.37
2019-05-13T20:39:59.154Z,99671.17
2019-05-13T20:42:31.318Z,99659.84
2019-05-13T20:45:03.390Z,99660.27
2019-05-13T20:47:35.325Z,99655.96
2019-05-13T20:50:08.790Z,99654.27
2019-05-13T20:52:42.076Z,99648.23
2019-05-13T20:55:14.393Z,99657.55
2019-05-13T20:57:46.355Z,99654.53
2019-05-13T21:00:18.490Z,99657.58
2019-05-13T21:02:51.657Z,99660.66
2019-05-13T21:05:23.971Z,99649.30
2019-05-13T21:07:56.054Z,99651.07
2019-05-13T21:10:28.140Z,99655.03
2019-05-13T21:13:01.723Z,99645.81
2019-05-13T21:15:33.943Z,99648.91
2019-05-13T21:18:05.916Z,99648.06
2019-05-13T21:20:38.020Z,99642.39
2019-05-13T21:23:11.296Z,99643.27
2019-05-13T21:25:43.530Z,99646.83
2019-05-13T21:28:15.533Z,99646.83
2019-05-13T21:30:47.517Z,99645.95
2019-05-13T21:33:21.934Z,99638.06
2019-05-13T21:35:53.290Z,99645.09
2019-05-13T21:38:25.375Z,99643.33
2019-05-13T21:40:57.343Z,99637.16
2019-05-13T21:43:29.342Z,99637.14
2019-05-13T21:46:02.082Z,99632.36
2019-05-13T21:48:34.260Z,99623.99
2019-05-13T21:51:06.250Z,99623.12
2019-05-13T21:53:38.346Z,99625.30
2019-05-13T21:56:12.184Z,99626.63
2019-05-13T21:58:43.977Z,99632.30
2019-05-13T22:01:16.322Z,99631.02
2019-05-13T22:03:48.340Z,99634.98
2019-05-13T22:06:21.832Z,99633.67
2019-05-13T22:08:53.910Z,99636.31
2019-05-13T22:11:25.863Z,99634.52
2019-05-13T22:13:57.927Z,99625.33
2019-05-13T22:16:31.885Z,99627.11
2019-05-13T22:19:03.549Z,99618.39
2019-05-13T22:21:36.697Z,99617.09
2019-05-13T22:24:08.682Z,99613.57
2019-05-13T22:26:42.027Z,99603.96
2019-05-13T22:29:14.382Z,99606.11
2019-05-13T22:31:47.292Z,99607.44
2019-05-13T22:34:21.213Z,99608.34
2019-05-13T22:36:52.981Z,99613.56
2019-05-13T22:39:24.986Z,99611.39
2019-05-13T22:41:58.024Z,99611.41
2019-05-13T22:44:32.255Z,99606.16
2019-05-13T22:47:03.958Z,99610.95
2019-05-13T22:49:35.900Z,99612.70
2019-05-13T22:52:08.081Z,99602.59
2019-05-13T22:54:41.191Z,99600.41
2019-05-13T22:57:13.474Z,99599.55
2019-05-13T22:59:45.446Z,99609.19
2019-05-13T23:02:17.586Z,99600.47
2019-05-13T23:04:51.182Z,99591.69
2019-05-13T23:07:23.559Z,99586.41
2019-05-13T23:09:55.539Z,99599.13
2019-05-13T23:12:27.546Z,99606.13
2019-05-13T23:15:01.327Z,99602.63
2019-05-13T23:17:33.109Z,99603.05
2019-05-13T23:20:05.600Z,99588.16
2019-05-13T23:22:37.648Z,99585.98
2019-05-13T23:25:12.013Z,99576.80
2019-05-13T23:27:43.412Z,99578.55
2019-05-13T23:30:15.412Z,99576.78
2019-05-13T23:32:47.422Z,99577.22
2019-05-13T23:35:21.641Z,99571.09
2019-05-13T23:37:53.807Z,99567.57
2019-05-13T23:40:25.908Z,99561.86
2019-05-13T23:42:57.930Z,99560.56
2019-05-13T23:45:31.243Z,99554.88
2019-05-13T23:48:03.444Z,99550.52
2019-05-13T23:50:35.465Z,99546.13
2019-05-13T23:53:07.384Z,99537.81
2019-05-13T23:55:41.278Z,99542.58
2019-05-13T23:58:12.991Z,99540.39
